sensor_id;sensor_type;location;lat;lon;timestamp;pressure;altitude;pressure_sealevel;temperature;humidity
64668;BME280;51077;42.716;23.344;2024-02-16T00:01:41;95954.13;;;8.37;49.08
64668;BME280;51077;42.716;23.344;2024-02-16T00:04:07;95946.56;;;8.32;49.14
64668;BME280;51077;42.716;23.344;2024-02-16T00:06:33;95944.31;;;8.30;49.25
64668;BME280;51077;42.716;23.344;2024-02-16T00:08:59;95947.53;;;8.29;49.13
64668;BME280;51077;42.716;23.344;2024-02-16T00:11:24;95950.75;;;8.27;49.36
64668;BME280;51077;42.716;23.344;2024-02-16T00:13:50;95960.16;;;8.26;49.38
64668;BME280;51077;42.716;23.344;2024-02-16T00:16:15;95952.19;;;8.23;49.42
64668;BME280;51077;42.716;23.344;2024-02-16T00:18:44;95954.38;;;8.19;49.30
64668;BME280;51077;42.716;23.344;2024-02-16T00:21:09;95948.13;;;8.18;49.21
64668;BME280;51077;42.716;23.344;2024-02-16T00:23:34;95948.38;;;8.15;49.30
64668;BME280;51077;42.716;23.344;2024-02-16T00:26:01;95945.06;;;8.11;49.25
64668;BME280;51077;42.716;23.344;2024-02-16T00:28:26;95952.03;;;8.12;49.09
64668;BME280;51077;42.716;23.344;2024-02-16T00:30:52;95950.00;;;8.06;49.16
64668;BME280;51077;42.716;23.344;2024-02-16T00:33:17;95952.19;;;8.02;49.62
64668;BME280;51077;42.716;23.344;2024-02-16T00:35:44;95952.19;;;8.02;49.46
64668;BME280;51077;42.716;23.344;2024-02-16T00:38:09;95946.44;;;8.00;49.45
64668;BME280;51077;42.716;23.344;2024-02-16T00:40:35;95952.13;;;7.97;49.39
64668;BME280;51077;42.716;23.344;2024-02-16T00:43:00;95947.09;;;7.95;49.32
64668;BME280;51077;42.716;23.344;2024-02-16T00:45:25;95954.75;;;7.91;49.18
64668;BME280;51077;42.716;23.344;2024-02-16T00:47:51;95950.28;;;7.88;49.28
64668;BME280;51077;42.716;23.344;2024-02-16T00:50:16;95947.25;;;7.86;49.21
64668;BME280;51077;42.716;23.344;2024-02-16T00:52:42;95946.22;;;7.84;49.38
64668;BME280;51077;42.716;23.344;2024-02-16T00:55:10;95955.09;;;7.78;49.47
64668;BME280;51077;42.716;23.344;2024-02-16T00:57:35;95951.34;;;7.76;49.52
64668;BME280;51077;42.716;23.344;2024-02-16T01:00:01;95953.78;;;7.74;49.57
64668;BME280;51077;42.716;23.344;2024-02-16T01:02:28;95957.00;;;7.72;49.26
64668;BME280;51077;42.716;23.344;2024-02-16T01:04:54;95956.44;;;7.68;49.43
64668;BME280;51077;42.716;23.344;2024-02-16T01:07:23;95955.41;;;7.66;49.25
64668;BME280;51077;42.716;23.344;2024-02-16T01:09:48;95954.66;;;7.65;49.68
64668;BME280;51077;42.716;23.344;2024-02-16T01:12:14;95956.19;;;7.66;49.38
64668;BME280;51077;42.716;23.344;2024-02-16T01:14:39;95953.91;;;7.65;49.37
64668;BME280;51077;42.716;23.344;2024-02-16T01:17:04;95959.09;;;7.63;49.64
64668;BME280;51077;42.716;23.344;2024-02-16T01:19:30;95955.34;;;7.60;49.58
64668;BME280;51077;42.716;23.344;2024-02-16T01:21:55;95951.59;;;7.58;49.58
64668;BME280;51077;42.716;23.344;2024-02-16T01:24:24;95950.34;;;7.59;49.63
64668;BME280;51077;42.716;23.344;2024-02-16T01:26:49;95948.84;;;7.58;49.38
64668;BME280;51077;42.716;23.344;2024-02-16T01:29:15;95946.13;;;7.58;49.37
64668;BME280;51077;42.716;23.344;2024-02-16T01:31:40;95940.38;;;7.55;49.54
64668;BME280;51077;42.716;23.344;2024-02-16T01:34:05;95937.16;;;7.57;49.38
64668;BME280;51077;42.716;23.344;2024-02-16T01:36:31;95942.34;;;7.55;49.25
64668;BME280;51077;42.716;23.344;2024-02-16T01:38:56;95938.88;;;7.54;49.11
64668;BME280;51077;42.716;23.344;2024-02-16T01:41:21;95936.13;;;7.54;49.34
64668;BME280;51077;42.716;23.344;2024-02-16T01:43:47;95941.31;;;7.52;49.35
64668;BME280;51077;42.716;23.344;2024-02-16T01:46:12;95939.53;;;7.49;49.27
64668;BME280;51077;42.716;23.344;2024-02-16T01:48:37;95938.81;;;7.49;49.20
64668;BME280;51077;42.716;23.344;2024-02-16T01:51:08;95931.81;;;7.48;49.29
64668;BME280;51077;42.716;23.344;2024-02-16T01:53:34;95920.13;;;7.47;49.45
64668;BME280;51077;42.716;23.344;2024-02-16T01:56:01;95932.78;;;7.45;49.48
64668;BME280;51077;42.716;23.344;2024-02-16T01:58:27;95926.53;;;7.44;49.53
64668;BME280;51077;42.716;23.344;2024-02-16T02:00:53;95924.28;;;7.43;49.61
64668;BME280;51077;42.716;23.344;2024-02-16T02:03:18;95934.94;;;7.41;49.19
64668;BME280;51077;42.716;23.344;2024-02-16T02:05:47;95931.47;;;7.40;49.67
64668;BME280;51077;42.716;23.344;2024-02-16T02:08:13;95933.16;;;7.38;49.08
64668;BME280;51077;42.716;23.344;2024-02-16T02:10:39;95930.13;;;7.36;49.20
64668;BME280;51077;42.716;23.344;2024-02-16T02:13:04;95939.84;;;7.37;49.45
64668;BME280;51077;42.716;23.344;2024-02-16T02:15:29;95927.88;;;7.34;49.42
64668;BME280;51077;42.716;23.344;2024-02-16T02:17:55;95928.81;;;7.31;49.29
64668;BME280;51077;42.716;23.344;2024-02-16T02:20:20;95932.03;;;7.29;49.33
64668;BME280;51077;42.716;23.344;2024-02-16T02:22:46;95935.25;;;7.28;49.27
64668;BME280;51077;42.716;23.344;2024-02-16T02:25:11;95935.25;;;7.28;49.73
64668;BME280;51077;42.716;23.344;2024-02-16T02:27:37;95935.72;;;7.26;49.76
64668;BME280;51077;42.716;23.344;2024-02-16T02:30:04;95940.16;;;7.24;49.46
64668;BME280;51077;42.716;23.344;2024-02-16T02:32:30;95931.41;;;7.20;49.35
64668;BME280;51077;42.716;23.344;2024-02-16T02:34:55;95933.84;;;7.18;49.28
64668;BME280;51077;42.716;23.344;2024-02-16T02:37:21;95940.53;;;7.17;49.22
64668;BME280;51077;42.716;23.344;2024-02-16T02:39:46;95935.06;;;7.17;49.22
64668;BME280;51077;42.716;23.344;2024-02-16T02:42:12;95934.06;;;7.14;49.24
64668;BME280;51077;42.716;23.344;2024-02-16T02:44:38;95934.81;;;7.15;49.39
64668;BME280;51077;42.716;23.344;2024-02-16T02:47:03;95932.75;;;7.10;49.56
64668;BME280;51077;42.716;23.344;2024-02-16T02:49:29;95933.19;;;7.08;49.49
64668;BME280;51077;42.716;23.344;2024-02-16T02:51:54;95931.69;;;7.07;49.69
64668;BME280;51077;42.716;23.344;2024-02-16T02:54:19;95927.94;;;7.04;49.27
64668;BME280;51077;42.716;23.344;2024-02-16T02:56:45;95935.84;;;7.02;49.50
64668;BME280;51077;42.716;23.344;2024-02-16T02:59:10;95935.84;;;7.02;49.62
64668;BME280;51077;42.716;23.344;2024-02-16T03:01:36;95937.06;;;7.01;49.58
64668;BME280;51077;42.716;23.344;2024-02-16T03:04:02;95929.91;;;7.04;49.48
64668;BME280;51077;42.716;23.344;2024-02-16T03:06:28;95937.06;;;7.01;49.27
64668;BME280;51077;42.716;23.344;2024-02-16T03:08:53;95935.28;;;6.98;49.23
64668;BME280;51077;42.716;23.344;2024-02-16T03:11:18;95931.06;;;6.97;49.36
64668;BME280;51077;42.716;23.344;2024-02-16T03:13:44;95920.81;;;6.92;49.71
64668;BME280;51077;42.716;23.344;2024-02-16T03:16:09;95926.25;;;6.92;49.83
64668;BME280;51077;42.716;23.344;2024-02-16T03:18:35;95932.91;;;6.91;49.43
64668;BME280;51077;42.716;23.344;2024-02-16T03:21:01;95932.16;;;6.91;49.32
64668;BME280;51077;42.716;23.344;2024-02-16T03:23:26;95928.69;;;6.90;49.44
64668;BME280;51077;42.716;23.344;2024-02-16T03:25:52;95937.38;;;6.89;49.36
64668;BME280;51077;42.716;23.344;2024-02-16T03:28:18;95934.06;;;6.85;49.68
64668;BME280;51077;42.716;23.344;2024-02-16T03:30:43;95938.47;;;6.82;49.50
64668;BME280;51077;42.716;23.344;2024-02-16T03:33:09;95936.50;;;6.83;49.71
64668;BME280;51077;42.716;23.344;2024-02-16T03:35:35;95947.31;;;6.77;49.58
64668;BME280;51077;42.716;23.344;2024-02-16T03:38:02;95942.34;;;6.75;49.72
64668;BME280;51077;42.716;23.344;2024-02-16T03:40:28;95945.81;;;6.76;49.29
64668;BME280;51077;42.716;23.344;2024-02-16T03:42:53;95938.56;;;6.73;49.31
64668;BME280;51077;42.716;23.344;2024-02-16T03:45:19;95942.78;;;6.74;49.52
64668;BME280;51077;42.716;23.344;2024-02-16T03:47:44;95942.53;;;6.72;49.29
64668;BME280;51077;42.716;23.344;2024-02-16T03:50:10;95944.69;;;6.68;49.99
64668;BME280;51077;42.716;23.344;2024-02-16T03:52:36;95943.19;;;6.67;49.86
64668;BME280;51077;42.716;23.344;2024-02-16T03:55:02;95947.13;;;6.66;49.68
64668;BME280;51077;42.716;23.344;2024-02-16T03:57:27;95935.47;;;6.65;49.65
64668;BME280;51077;42.716;23.344;2024-02-16T03:59:53;95932.72;;;6.65;49.50
64668;BME280;51077;42.716;23.344;2024-02-16T04:02:18;95944.13;;;6.64;49.86
64668;BME280;51077;42.716;23.344;2024-02-16T04:04:44;95941.09;;;6.62;49.76
64668;BME280;51077;42.716;23.344;2024-02-16T04:07:09;95939.88;;;6.63;49.82
64668;BME280;51077;42.716;23.344;2024-02-16T04:09:35;95941.09;;;6.62;49.41
64668;BME280;51077;42.716;23.344;2024-02-16T04:12:01;95946.53;;;6.62;49.50
64668;BME280;51077;42.716;23.344;2024-02-16T04:14:27;95942.03;;;6.59;49.70
64668;BME280;51077;42.716;23.344;2024-02-16T04:16:52;95935.38;;;6.60;49.82
64668;BME280;51077;42.716;23.344;2024-02-16T04:19:18;95934.63;;;6.59;49.38
64668;BME280;51077;42.716;23.344;2024-02-16T04:21:44;95939.31;;;6.59;49.49
64668;BME280;51077;42.716;23.344;2024-02-16T04:24:10;95935.84;;;6.58;49.69
64668;BME280;51077;42.716;23.344;2024-02-16T04:26:35;95933.56;;;6.57;49.69
64668;BME280;51077;42.716;23.344;2024-02-16T04:29:02;95936.78;;;6.55;49.84
64668;BME280;51077;42.716;23.344;2024-02-16T04:31:29;95940.72;;;6.54;49.60
64668;BME280;51077;42.716;23.344;2024-02-16T04:33:55;95946.94;;;6.54;49.77
64668;BME280;51077;42.716;23.344;2024-02-16T04:36:20;95952.38;;;6.54;49.19
64668;BME280;51077;42.716;23.344;2024-02-16T04:38:45;95950.31;;;6.49;49.52
64668;BME280;51077;42.716;23.344;2024-02-16T04:41:11;95939.84;;;6.48;49.46
64668;BME280;51077;42.716;23.344;2024-02-16T04:43:36;95951.72;;;6.45;49.56
64668;BME280;51077;42.716;23.344;2024-02-16T04:46:02;95951.16;;;6.41;49.89
64668;BME280;51077;42.716;23.344;2024-02-16T04:48:28;95949.16;;;6.41;49.68
64668;BME280;51077;42.716;23.344;2024-02-16T04:50:54;95951.31;;;6.37;49.79
64668;BME280;51077;42.716;23.344;2024-02-16T04:53:19;95948.59;;;6.37;49.47
64668;BME280;51077;42.716;23.344;2024-02-16T04:55:45;95951.78;;;6.36;49.82
64668;BME280;51077;42.716;23.344;2024-02-16T04:58:10;95951.03;;;6.35;49.37
64668;BME280;51077;42.716;23.344;2024-02-16T05:00:37;95958.66;;;6.46;53.79
64668;BME280;51077;42.716;23.344;2024-02-16T05:03:03;95958.38;;;6.44;53.64
64668;BME280;51077;42.716;23.344;2024-02-16T05:05:29;95964.59;;;6.44;52.94
64668;BME280;51077;42.716;23.344;2024-02-16T05:07:55;95960.81;;;6.42;53.09
64668;BME280;51077;42.716;23.344;2024-02-16T05:10:21;95967.50;;;6.41;52.69
64668;BME280;51077;42.716;23.344;2024-02-16T05:12:46;95964.94;;;6.37;52.58
64668;BME280;51077;42.716;23.344;2024-02-16T05:15:12;95972.06;;;6.35;52.35
64668;BME280;51077;42.716;23.344;2024-02-16T05:17:40;95973.03;;;6.32;52.30
64668;BME280;51077;42.716;23.344;2024-02-16T05:20:10;95968.97;;;6.27;52.34
64668;BME280;51077;42.716;23.344;2024-02-16T05:22:41;95977.16;;;6.27;52.50
64668;BME280;51077;42.716;23.344;2024-02-16T05:25:08;95981.06;;;6.26;52.10
64668;BME280;51077;42.716;23.344;2024-02-16T05:27:33;95984.84;;;6.28;52.90
64668;BME280;51077;42.716;23.344;2024-02-16T05:30:00;95991.00;;;6.38;56.80
64668;BME280;51077;42.716;23.344;2024-02-16T05:32:25;95991.94;;;6.89;62.46
64668;BME280;51077;42.716;23.344;2024-02-16T05:34:51;95989.56;;;6.96;62.60
64668;BME280;51077;42.716;23.344;2024-02-16T05:37:16;96004.16;;;6.93;61.44
64668;BME280;51077;42.716;23.344;2024-02-16T05:39:43;95998.91;;;6.90;60.96
64668;BME280;51077;42.716;23.344;2024-02-16T05:42:20;95998.16;;;6.89;60.46
64668;BME280;51077;42.716;23.344;2024-02-16T05:44:47;95993.25;;;6.93;59.61
64668;BME280;51077;42.716;23.344;2024-02-16T05:47:15;95999.25;;;6.83;57.75
64668;BME280;51077;42.716;23.344;2024-02-16T05:49:40;96000.47;;;6.67;54.65
64668;BME280;51077;42.716;23.344;2024-02-16T05:52:06;95993.56;;;6.57;52.67
64668;BME280;51077;42.716;23.344;2024-02-16T05:54:44;96000.91;;;6.50;51.52
64668;BME280;51077;42.716;23.344;2024-02-16T05:57:10;96000.31;;;6.46;50.23
64668;BME280;51077;42.716;23.344;2024-02-16T05:59:35;96002.31;;;6.46;49.70
64668;BME280;51077;42.716;23.344;2024-02-16T06:02:01;96001.38;;;6.49;49.36
64668;BME280;51077;42.716;23.344;2024-02-16T06:04:26;96001.16;;;6.52;48.80
64668;BME280;51077;42.716;23.344;2024-02-16T06:06:52;96012.47;;;6.60;48.71
64668;BME280;51077;42.716;23.344;2024-02-16T06:09:19;96000.25;;;6.70;48.41
64668;BME280;51077;42.716;23.344;2024-02-16T06:11:44;96003.22;;;6.82;48.00
64668;BME280;51077;42.716;23.344;2024-02-16T06:14:10;96009.91;;;6.95;47.88
64668;BME280;51077;42.716;23.344;2024-02-16T06:16:35;96007.94;;;7.11;47.42
64668;BME280;51077;42.716;23.344;2024-02-16T06:19:01;96019.25;;;7.18;47.49
64668;BME280;51077;42.716;23.344;2024-02-16T06:21:26;96019.91;;;7.28;47.24
64668;BME280;51077;42.716;23.344;2024-02-16T06:23:51;96016.78;;;7.50;46.71
64668;BME280;51077;42.716;23.344;2024-02-16T06:26:17;96015.72;;;7.62;46.98
64668;BME280;51077;42.716;23.344;2024-02-16T06:28:42;96017.81;;;7.88;46.17
64668;BME280;51077;42.716;23.344;2024-02-16T06:31:08;96008.50;;;8.15;45.95
64668;BME280;51077;42.716;23.344;2024-02-16T06:33:33;96003.16;;;8.41;45.13
64668;BME280;51077;42.716;23.344;2024-02-16T06:35:59;96003.41;;;8.63;44.66
64668;BME280;51077;42.716;23.344;2024-02-16T06:38:24;96012.34;;;8.84;44.10
64668;BME280;51077;42.716;23.344;2024-02-16T06:40:50;96008.59;;;9.07;43.57
64668;BME280;51077;42.716;23.344;2024-02-16T06:43:15;96012.28;;;9.30;43.37
64668;BME280;51077;42.716;23.344;2024-02-16T06:45:41;96015.91;;;9.48;42.66
64668;BME280;51077;42.716;23.344;2024-02-16T06:48:07;96012.84;;;9.72;42.42
64668;BME280;51077;42.716;23.344;2024-02-16T06:50:32;96009.50;;;9.94;41.88
64668;BME280;51077;42.716;23.344;2024-02-16T06:52:57;96017.88;;;10.22;41.04
64668;BME280;51077;42.716;23.344;2024-02-16T06:55:24;96019.03;;;10.47;40.64
64668;BME280;51077;42.716;23.344;2024-02-16T06:57:50;96022.06;;;10.54;40.29
64668;BME280;51077;42.716;23.344;2024-02-16T07:00:17;96018.16;;;10.72;40.12
64668;BME280;51077;42.716;23.344;2024-02-16T07:02:42;96014.72;;;10.94;39.61
64668;BME280;51077;42.716;23.344;2024-02-16T07:05:08;96014.00;;;11.22;39.27
64668;BME280;51077;42.716;23.344;2024-02-16T07:07:33;96017.28;;;11.60;39.61
64668;BME280;51077;42.716;23.344;2024-02-16T07:10:01;96013.03;;;11.87;39.40
64668;BME280;51077;42.716;23.344;2024-02-16T07:12:26;96018.00;;;12.11;38.69
64668;BME280;51077;42.716;23.344;2024-02-16T07:14:52;96019.69;;;12.30;38.53
64668;BME280;51077;42.716;23.344;2024-02-16T07:17:18;96016.38;;;12.54;38.03
64668;BME280;51077;42.716;23.344;2024-02-16T07:19:45;96014.56;;;12.68;37.43
64668;BME280;51077;42.716;23.344;2024-02-16T07:22:11;96009.72;;;12.86;37.28
64668;BME280;51077;42.716;23.344;2024-02-16T07:24:37;96011.09;;;13.09;36.99
64668;BME280;51077;42.716;23.344;2024-02-16T07:27:03;96013.81;;;13.15;36.39
64668;BME280;51077;42.716;23.344;2024-02-16T07:29:28;96010.22;;;13.37;36.42
64668;BME280;51077;42.716;23.344;2024-02-16T07:31:54;96013.00;;;13.61;35.99
64668;BME280;51077;42.716;23.344;2024-02-16T07:34:21;96006.28;;;13.87;35.57
64668;BME280;51077;42.716;23.344;2024-02-16T07:36:46;96018.84;;;14.12;35.47
64668;BME280;51077;42.716;23.344;2024-02-16T07:39:12;96017.13;;;14.33;35.24
64668;BME280;51077;42.716;23.344;2024-02-16T07:41:38;96009.41;;;14.51;34.82
64668;BME280;51077;42.716;23.344;2024-02-16T07:44:04;96014.38;;;14.77;34.61
64668;BME280;51077;42.716;23.344;2024-02-16T07:46:29;96018.34;;;15.00;34.02
64668;BME280;51077;42.716;23.344;2024-02-16T07:48:55;96024.47;;;15.12;34.17
64668;BME280;51077;42.716;23.344;2024-02-16T07:51:20;96021.69;;;15.82;38.17
64668;BME280;51077;42.716;23.344;2024-02-16T07:53:46;96020.38;;;16.55;37.22
64668;BME280;51077;42.716;23.344;2024-02-16T07:56:12;96021.91;;;17.17;36.26
64668;BME280;51077;42.716;23.344;2024-02-16T07:58:37;96023.94;;;17.71;36.05
64668;BME280;51077;42.716;23.344;2024-02-16T08:01:03;96028.28;;;18.22;35.27
64668;BME280;51077;42.716;23.344;2024-02-16T08:03:28;96023.56;;;18.66;34.92
64668;BME280;51077;42.716;23.344;2024-02-16T08:05:55;96018.19;;;19.04;34.52
64668;BME280;51077;42.716;23.344;2024-02-16T08:08:22;96030.38;;;19.45;34.25
64668;BME280;51077;42.716;23.344;2024-02-16T08:10:48;96032.53;;;19.83;33.94
64668;BME280;51077;42.716;23.344;2024-02-16T08:13:13;96029.38;;;20.17;33.59
64668;BME280;51077;42.716;23.344;2024-02-16T08:15:39;96024.88;;;20.45;33.44
64668;BME280;51077;42.716;23.344;2024-02-16T08:18:04;96017.78;;;20.74;33.16
64668;BME280;51077;42.716;23.344;2024-02-16T08:20:31;96022.69;;;21.06;32.83
64668;BME280;51077;42.716;23.344;2024-02-16T08:22:56;96016.25;;;21.37;32.61
64668;BME280;51077;42.716;23.344;2024-02-16T08:25:22;96018.13;;;21.67;32.66
64668;BME280;51077;42.716;23.344;2024-02-16T08:27:48;96018.50;;;21.96;32.16
64668;BME280;51077;42.716;23.344;2024-02-16T08:30:14;96024.44;;;22.25;32.00
64668;BME280;51077;42.716;23.344;2024-02-16T08:32:40;96026.19;;;22.55;31.42
64668;BME280;51077;42.716;23.344;2024-02-16T08:35:06;96024.56;;;22.87;31.51
64668;BME280;51077;42.716;23.344;2024-02-16T08:37:31;96018.31;;;23.13;31.12
64668;BME280;51077;42.716;23.344;2024-02-16T08:39:57;96017.19;;;23.43;30.80
64668;BME280;51077;42.716;23.344;2024-02-16T08:42:23;96018.25;;;23.75;30.51
64668;BME280;51077;42.716;23.344;2024-02-16T08:44:49;96023.09;;;24.01;30.24
64668;BME280;51077;42.716;23.344;2024-02-16T08:47:15;96016.25;;;24.31;29.91
64668;BME280;51077;42.716;23.344;2024-02-16T08:49:40;96020.44;;;24.60;29.57
64668;BME280;51077;42.716;23.344;2024-02-16T08:52:07;96015.59;;;24.89;29.19
64668;BME280;51077;42.716;23.344;2024-02-16T08:54:33;96018.25;;;25.16;29.03
64668;BME280;51077;42.716;23.344;2024-02-16T08:56:59;96020.19;;;25.43;28.69
64668;BME280;51077;42.716;23.344;2024-02-16T08:59:25;96017.88;;;25.70;28.32
64668;BME280;51077;42.716;23.344;2024-02-16T09:01:51;96025.47;;;25.99;28.25
64668;BME280;51077;42.716;23.344;2024-02-16T09:04:17;96018.09;;;26.25;27.80
64668;BME280;51077;42.716;23.344;2024-02-16T09:06:43;96014.44;;;26.53;27.57
64668;BME280;51077;42.716;23.344;2024-02-16T09:09:08;96012.63;;;26.79;27.03
64668;BME280;51077;42.716;23.344;2024-02-16T09:11:33;96012.13;;;27.04;26.89
64668;BME280;51077;42.716;23.344;2024-02-16T09:13:59;96010.88;;;27.29;26.88
64668;BME280;51077;42.716;23.344;2024-02-16T09:16:25;96011.06;;;27.54;26.39
64668;BME280;51077;42.716;23.344;2024-02-16T09:18:51;96019.88;;;27.82;26.26
64668;BME280;51077;42.716;23.344;2024-02-16T09:21:16;96017.16;;;28.08;25.73
64668;BME280;51077;42.716;23.344;2024-02-16T09:23:42;96008.56;;;28.29;25.48
64668;BME280;51077;42.716;23.344;2024-02-16T09:26:07;96022.56;;;28.50;25.39
64668;BME280;51077;42.716;23.344;2024-02-16T09:28:40;96014.16;;;28.76;25.13
64668;BME280;51077;42.716;23.344;2024-02-16T09:31:09;96018.44;;;29.00;24.58
64668;BME280;51077;42.716;23.344;2024-02-16T09:33:35;96015.41;;;29.22;24.34
64668;BME280;51077;42.716;23.344;2024-02-16T09:36:00;96010.13;;;29.42;24.20
64668;BME280;51077;42.716;23.344;2024-02-16T09:38:26;96010.53;;;29.62;23.94
64668;BME280;51077;42.716;23.344;2024-02-16T09:40:51;96008.06;;;29.82;23.50
64668;BME280;51077;42.716;23.344;2024-02-16T09:43:27;96005.06;;;30.05;23.34
64668;BME280;51077;42.716;23.344;2024-02-16T09:45:56;96007.72;;;30.28;22.80
64668;BME280;51077;42.716;23.344;2024-02-16T09:48:22;95996.28;;;30.54;22.36
64668;BME280;51077;42.716;23.344;2024-02-16T09:50:56;96006.75;;;30.51;22.91
64668;BME280;51077;42.716;23.344;2024-02-16T09:53:25;95996.47;;;30.58;22.79
64668;BME280;51077;42.716;23.344;2024-02-16T09:55:52;95997.72;;;30.69;22.95
64668;BME280;51077;42.716;23.344;2024-02-16T09:58:18;95991.63;;;30.88;23.24
64668;BME280;51077;42.716;23.344;2024-02-16T10:00:54;95991.53;;;31.16;22.36
64668;BME280;51077;42.716;23.344;2024-02-16T10:03:32;95980.47;;;31.36;22.60
64668;BME280;51077;42.716;23.344;2024-02-16T10:06:09;95989.09;;;31.53;21.55
64668;BME280;51077;42.716;23.344;2024-02-16T10:08:46;95982.69;;;31.69;21.82
64668;BME280;51077;42.716;23.344;2024-02-16T10:11:11;95977.06;;;31.85;21.51
64668;BME280;51077;42.716;23.344;2024-02-16T10:13:37;95967.97;;;32.04;21.42
64668;BME280;51077;42.716;23.344;2024-02-16T10:16:07;95970.25;;;32.23;21.13
64668;BME280;51077;42.716;23.344;2024-02-16T10:18:37;95954.13;;;32.44;20.94
64668;BME280;51077;42.716;23.344;2024-02-16T10:21:04;95970.53;;;32.63;20.72
64668;BME280;51077;42.716;23.344;2024-02-16T10:23:29;95956.56;;;32.69;20.05
64668;BME280;51077;42.716;23.344;2024-02-16T10:25:55;95958.72;;;32.87;20.08
64668;BME280;51077;42.716;23.344;2024-02-16T10:28:21;95967.19;;;33.02;19.71
64668;BME280;51077;42.716;23.344;2024-02-16T10:30:57;95948.63;;;32.66;21.63
64668;BME280;51077;42.716;23.344;2024-02-16T10:33:27;95947.28;;;32.01;22.38
64668;BME280;51077;42.716;23.344;2024-02-16T10:35:55;95947.41;;;31.42;22.99
64668;BME280;51077;42.716;23.344;2024-02-16T10:38:21;95937.00;;;31.01;22.66
64668;BME280;51077;42.716;23.344;2024-02-16T10:40:48;95936.38;;;31.19;22.08
64668;BME280;51077;42.716;23.344;2024-02-16T10:43:14;95933.44;;;31.62;21.73
64668;BME280;51077;42.716;23.344;2024-02-16T10:45:40;95935.19;;;32.01;20.73
64668;BME280;51077;42.716;23.344;2024-02-16T10:48:07;95935.84;;;32.33;20.67
64668;BME280;51077;42.716;23.344;2024-02-16T10:50:36;95930.09;;;32.65;20.09
64668;BME280;51077;42.716;23.344;2024-02-16T10:53:07;95932.31;;;32.84;19.57
64668;BME280;51077;42.716;23.344;2024-02-16T10:55:35;95923.88;;;33.04;19.21
64668;BME280;51077;42.716;23.344;2024-02-16T10:58:00;95927.78;;;33.13;19.30
64668;BME280;51077;42.716;23.344;2024-02-16T11:00:26;95923.63;;;33.16;19.05
64668;BME280;51077;42.716;23.344;2024-02-16T11:02:56;95924.94;;;33.31;18.90
64668;BME280;51077;42.716;23.344;2024-02-16T11:05:39;95926.38;;;33.49;18.49
64668;BME280;51077;42.716;23.344;2024-02-16T11:08:12;95917.22;;;33.71;18.25
64668;BME280;51077;42.716;23.344;2024-02-16T11:10:38;95920.72;;;33.89;18.34
64668;BME280;51077;42.716;23.344;2024-02-16T11:13:04;95914.25;;;34.07;17.88
64668;BME280;51077;42.716;23.344;2024-02-16T11:15:34;95914.56;;;34.15;17.54
64668;BME280;51077;42.716;23.344;2024-02-16T11:18:00;95913.63;;;34.30;17.10
64668;BME280;51077;42.716;23.344;2024-02-16T11:20:26;95911.16;;;34.40;17.29
64668;BME280;51077;42.716;23.344;2024-02-16T11:22:52;95908.50;;;34.46;17.08
64668;BME280;51077;42.716;23.344;2024-02-16T11:25:18;95906.00;;;34.57;16.67
64668;BME280;51077;42.716;23.344;2024-02-16T11:27:46;95905.56;;;34.64;16.84
64668;BME280;51077;42.716;23.344;2024-02-16T11:30:12;95897.41;;;34.76;16.51
64668;BME280;51077;42.716;23.344;2024-02-16T11:32:37;95894.09;;;34.84;16.52
64668;BME280;51077;42.716;23.344;2024-02-16T11:35:07;95889.53;;;34.97;16.22
64668;BME280;51077;42.716;23.344;2024-02-16T11:37:33;95884.69;;;35.02;16.03
64668;BME280;51077;42.716;23.344;2024-02-16T11:39:59;95880.22;;;34.96;15.79
64668;BME280;51077;42.716;23.344;2024-02-16T11:42:24;95887.44;;;34.99;15.61
64668;BME280;51077;42.716;23.344;2024-02-16T11:44:52;95886.56;;;34.95;14.91
64668;BME280;51077;42.716;23.344;2024-02-16T11:47:22;95892.88;;;34.91;15.54
64668;BME280;51077;42.716;23.344;2024-02-16T11:50:20;95878.75;;;34.51;16.96
64668;BME280;51077;42.716;23.344;2024-02-16T11:52:46;95875.03;;;33.85;18.91
64668;BME280;51077;42.716;23.344;2024-02-16T11:55:12;95875.34;;;33.36;18.92
64668;BME280;51077;42.716;23.344;2024-02-16T11:57:40;95876.78;;;33.37;18.74
64668;BME280;51077;42.716;23.344;2024-02-16T12:00:06;95879.75;;;33.59;18.34
64668;BME280;51077;42.716;23.344;2024-02-16T12:02:35;95873.47;;;33.82;17.98
64668;BME280;51077;42.716;23.344;2024-02-16T12:05:01;95865.75;;;34.05;17.65
64668;BME280;51077;42.716;23.344;2024-02-16T12:07:27;95870.63;;;34.22;17.02
64668;BME280;51077;42.716;23.344;2024-02-16T12:09:57;95864.59;;;34.34;16.99
64668;BME280;51077;42.716;23.344;2024-02-16T12:12:23;95862.84;;;34.44;16.64
64668;BME280;51077;42.716;23.344;2024-02-16T12:14:49;95860.88;;;34.49;16.45
64668;BME280;51077;42.716;23.344;2024-02-16T12:17:14;95861.44;;;34.45;16.56
64668;BME280;51077;42.716;23.344;2024-02-16T12:19:44;95862.63;;;34.38;16.22
64668;BME280;51077;42.716;23.344;2024-02-16T12:22:10;95855.19;;;34.29;15.53
64668;BME280;51077;42.716;23.344;2024-02-16T12:24:37;95859.09;;;34.18;15.97
64668;BME280;51077;42.716;23.344;2024-02-16T12:27:03;95845.31;;;34.10;15.82
64668;BME280;51077;42.716;23.344;2024-02-16T12:29:28;95857.81;;;34.01;15.89
64668;BME280;51077;42.716;23.344;2024-02-16T12:31:53;95850.25;;;33.90;15.88
64668;BME280;51077;42.716;23.344;2024-02-16T12:34:19;95853.41;;;33.78;15.90
64668;BME280;51077;42.716;23.344;2024-02-16T12:36:44;95850.41;;;33.74;15.49
64668;BME280;51077;42.716;23.344;2024-02-16T12:39:10;95843.19;;;33.71;15.35
64668;BME280;51077;42.716;23.344;2024-02-16T12:41:38;95841.59;;;33.66;15.35
64668;BME280;51077;42.716;23.344;2024-02-16T12:44:04;95841.31;;;33.58;15.79
64668;BME280;51077;42.716;23.344;2024-02-16T12:46:31;95836.97;;;33.57;15.46
64668;BME280;51077;42.716;23.344;2024-02-16T12:48:57;95835.38;;;33.51;15.62
64668;BME280;51077;42.716;23.344;2024-02-16T12:51:22;95834.25;;;33.41;15.97